createdAt,value
2017-05-07T00:00:57.782Z,1004.74
2017-05-07T00:01:57.766Z,1004.76
2017-05-07T00:02:57.741Z,1004.76
2017-05-07T00:03:57.722Z,1004.77
2017-05-07T00:04:57.703Z,1004.75
2017-05-07T00:05:57.690Z,1004.71
2017-05-07T00:06:57.671Z,1004.71
2017-05-07T00:07:57.659Z,1004.71
2017-05-07T00:08:57.633Z,1004.7
2017-05-07T00:09:57.614Z,1004.7
2017-05-07T00:10:57.603Z,1004.72
2017-05-07T00:11:57.583Z,1004.7
2017-05-07T00:12:57.563Z,1004.71
2017-05-07T00:13:57.541Z,1004.74
2017-05-07T00:14:57.523Z,1004.7
2017-05-07T00:15:57.510Z,1004.7
2017-05-07T00:16:57.490Z,1004.78
2017-05-07T00:17:57.468Z,1004.76
2017-05-07T00:18:57.451Z,1004.76
2017-05-07T00:19:57.432Z,1004.77
2017-05-07T00:20:57.412Z,1004.78
2017-05-07T00:21:57.393Z,1004.75
2017-05-07T00:22:57.379Z,1004.74
2017-05-07T00:23:57.360Z,1004.72
2017-05-07T00:24:57.341Z,1004.74
2017-05-07T00:25:57.321Z,1004.77
2017-05-07T00:26:57.312Z,1004.79
2017-05-07T00:27:57.284Z,1004.77
2017-05-07T00:28:57.273Z,1004.73
2017-05-07T00:29:57.254Z,1004.74
2017-05-07T00:30:57.233Z,1004.77
2017-05-07T00:31:57.213Z,1004.74
2017-05-07T00:32:57.196Z,1004.75
2017-05-07T00:33:57.181Z,1004.7
2017-05-07T00:34:57.158Z,1004.7
2017-05-07T00:35:57.144Z,1004.71
2017-05-07T00:36:57.123Z,1004.72
2017-05-07T00:37:57.114Z,1004.72
2017-05-07T00:38:57.092Z,1004.69
2017-05-07T00:39:57.069Z,1004.7
2017-05-07T00:40:57.051Z,1004.69
2017-05-07T00:41:57.031Z,1004.71
2017-05-07T00:42:57.014Z,1004.74
2017-05-07T00:43:56.992Z,1004.73
2017-05-07T00:44:56.974Z,1004.74
2017-05-07T00:45:56.964Z,1004.73
2017-05-07T00:46:56.939Z,1004.73
2017-05-07T00:47:56.923Z,1004.73
2017-05-07T00:48:56.902Z,1004.74
2017-05-07T00:49:56.890Z,1004.73
2017-05-07T00:50:56.867Z,1004.75
2017-05-07T00:51:56.848Z,1004.75
2017-05-07T00:52:56.831Z,1004.78
2017-05-07T00:53:56.834Z,1004.74
2017-05-07T00:54:56.823Z,1004.78
2017-05-07T00:55:56.772Z,1004.77
2017-05-07T00:56:56.753Z,1004.8
2017-05-07T00:57:56.742Z,1004.77
2017-05-07T00:58:56.718Z,1004.8
2017-05-07T00:59:56.702Z,1004.78
2017-05-07T01:00:56.680Z,1004.76
2017-05-07T01:01:56.661Z,1004.75
2017-05-07T01:02:56.647Z,1004.79
2017-05-07T01:03:56.643Z,1004.77
2017-05-07T01:04:56.613Z,1004.78
2017-05-07T01:05:56.590Z,1004.78
2017-05-07T01:06:56.573Z,1004.81
2017-05-07T01:07:56.553Z,1004.76
2017-05-07T01:08:56.532Z,1004.78
2017-05-07T01:09:56.521Z,1004.76
2017-05-07T01:10:56.502Z,1004.78
2017-05-07T01:11:56.483Z,1004.76
2017-05-07T01:12:56.463Z,1004.74
2017-05-07T01:13:56.441Z,1004.73
2017-05-07T01:14:56.423Z,1004.73
2017-05-07T01:15:56.409Z,1004.73
2017-05-07T01:16:56.403Z,1004.77
2017-05-07T01:17:56.371Z,1004.77
2017-05-07T01:18:56.349Z,1004.77
2017-05-07T01:19:56.330Z,1004.77
2017-05-07T01:20:56.336Z,1004.78
2017-05-07T01:21:56.295Z,1004.8
2017-05-07T01:22:56.276Z,1004.75
2017-05-07T01:23:56.265Z,1004.82
2017-05-07T01:24:56.240Z,1004.83
2017-05-07T01:25:56.223Z,1004.8
2017-05-07T01:26:56.204Z,1004.84
2017-05-07T01:27:56.188Z,1004.79
2017-05-07T01:28:56.170Z,1004.83
2017-05-07T01:29:56.150Z,1004.77
2017-05-07T01:30:56.133Z,1004.8
2017-05-07T01:31:56.114Z,1004.76
2017-05-07T01:32:56.091Z,1004.81
2017-05-07T01:33:56.070Z,1004.82
2017-05-07T01:34:56.052Z,1004.83
2017-05-07T01:35:56.042Z,1004.82
2017-05-07T01:36:56.021Z,1004.87
2017-05-07T01:37:55.999Z,1004.83
2017-05-07T01:38:55.984Z,1004.82
2017-05-07T01:39:55.959Z,1004.86
2017-05-07T01:40:55.941Z,1004.85
2017-05-07T01:41:55.923Z,1004.84
2017-05-07T01:42:55.909Z,1004.85
2017-05-07T01:43:55.885Z,1004.83
2017-05-07T01:44:55.872Z,1004.84
2017-05-07T01:45:55.852Z,1004.87
2017-05-07T01:46:55.833Z,1004.86
2017-05-07T01:47:55.812Z,1004.91
2017-05-07T01:48:55.810Z,1004.93
2017-05-07T01:49:55.777Z,1004.91
2017-05-07T01:50:55.762Z,1004.96
2017-05-07T01:51:55.742Z,1004.98
2017-05-07T01:52:55.721Z,1004.99
2017-05-07T01:53:55.711Z,1004.99
2017-05-07T01:54:55.681Z,1004.98
2017-05-07T01:55:55.663Z,1004.96
2017-05-07T01:56:55.645Z,1005
2017-05-07T01:57:55.630Z,1004.98
2017-05-07T01:58:55.608Z,1005.04
2017-05-07T01:59:55.587Z,1004.99
2017-05-07T02:00:55.573Z,1004.99
2017-05-07T02:01:55.552Z,1004.97
2017-05-07T02:02:55.531Z,1004.96
2017-05-07T02:03:55.513Z,1005
2017-05-07T02:04:55.495Z,1004.95
2017-05-07T02:05:55.475Z,1004.95
2017-05-07T02:06:55.457Z,1004.97
2017-05-07T02:07:55.444Z,1004.95
2017-05-07T02:08:55.420Z,1004.97
2017-05-07T02:09:55.399Z,1004.94
2017-05-07T02:10:55.382Z,1004.95
2017-05-07T02:11:55.363Z,1004.94
2017-05-07T02:12:55.354Z,1004.9
2017-05-07T02:13:55.326Z,1004.92
2017-05-07T02:14:55.314Z,1004.92
2017-05-07T02:15:55.290Z,1004.87
2017-05-07T02:16:55.274Z,1004.88
2017-05-07T02:17:55.253Z,1004.87
2017-05-07T02:18:55.234Z,1004.89
2017-05-07T02:19:55.213Z,1004.88
2017-05-07T02:20:55.193Z,1004.85
2017-05-07T02:21:55.176Z,1004.84
2017-05-07T02:22:55.153Z,1004.82
2017-05-07T02:23:55.138Z,1004.88
2017-05-07T02:24:55.124Z,1004.84
2017-05-07T02:25:55.101Z,1004.85
2017-05-07T02:26:55.085Z,1004.83
2017-05-07T02:27:55.061Z,1004.83
2017-05-07T02:28:55.045Z,1004.83
2017-05-07T02:29:55.022Z,1004.82
2017-05-07T02:30:55.004Z,1004.84
2017-05-07T02:31:54.987Z,1004.82
2017-05-07T02:32:54.965Z,1004.83
2017-05-07T02:33:54.950Z,1004.86
2017-05-07T02:34:54.929Z,1004.85
2017-05-07T02:35:54.911Z,1004.82
2017-05-07T02:36:54.893Z,1004.83
2017-05-07T02:37:54.871Z,1004.8
2017-05-07T02:38:54.857Z,1004.84
2017-05-07T02:39:54.833Z,1004.83
2017-05-07T02:40:54.812Z,1004.77
2017-05-07T02:41:54.800Z,1004.8
2017-05-07T02:42:54.776Z,1004.79
2017-05-07T02:43:54.769Z,1004.81
2017-05-07T02:44:54.741Z,1004.84
2017-05-07T02:45:54.721Z,1004.83
2017-05-07T02:46:54.700Z,1004.82
2017-05-07T02:47:54.681Z,1004.82
2017-05-07T02:48:54.665Z,1004.86
2017-05-07T02:49:54.642Z,1004.89
2017-05-07T02:50:54.625Z,1004.89
2017-05-07T02:51:54.611Z,1004.9
2017-05-07T02:52:54.590Z,1004.9
2017-05-07T02:53:54.570Z,1004.93
2017-05-07T02:54:54.549Z,1004.95
2017-05-07T02:55:54.533Z,1004.94
2017-05-07T02:56:54.512Z,1004.91
2017-05-07T02:57:54.492Z,1004.96
2017-05-07T02:58:54.471Z,1004.93
2017-05-07T02:59:54.455Z,1004.99
2017-05-07T03:00:54.432Z,1004.94
2017-05-07T03:01:54.414Z,1004.96
2017-05-07T03:02:54.400Z,1004.9
2017-05-07T03:03:54.374Z,1004.96
2017-05-07T03:04:54.359Z,1004.96
2017-05-07T03:05:54.338Z,1004.95
2017-05-07T03:06:54.318Z,1004.94
2017-05-07T03:07:54.300Z,1004.9
2017-05-07T03:08:54.284Z,1004.93
2017-05-07T03:09:54.263Z,1004.93
2017-05-07T03:10:54.241Z,1004.95
2017-05-07T03:11:54.223Z,1004.94
2017-05-07T03:12:54.203Z,1004.97
2017-05-07T03:13:54.189Z,1004.97
2017-05-07T03:14:54.174Z,1004.99
2017-05-07T03:15:54.151Z,1004.94
2017-05-07T03:16:54.129Z,1004.93
2017-05-07T03:17:54.113Z,1004.92
2017-05-07T03:18:54.094Z,1004.94
2017-05-07T03:19:54.071Z,1004.92
2017-05-07T03:20:54.058Z,1004.96
2017-05-07T03:21:54.036Z,1004.91
2017-05-07T03:22:54.012Z,1004.88
2017-05-07T03:23:53.992Z,1004.88
2017-05-07T03:24:53.974Z,1004.87
2017-05-07T03:25:53.956Z,1004.86
2017-05-07T03:26:53.944Z,1004.86
2017-05-07T03:27:53.915Z,1004.87
2017-05-07T03:28:53.902Z,1004.86
2017-05-07T03:29:53.877Z,1004.87
2017-05-07T03:30:53.863Z,1004.87
2017-05-07T03:31:53.843Z,1004.85
2017-05-07T03:32:53.823Z,1004.87
2017-05-07T03:33:53.802Z,1004.91
2017-05-07T03:34:53.793Z,1004.89
2017-05-07T03:35:53.765Z,1004.88
2017-05-07T03:36:53.744Z,1004.89
2017-05-07T03:37:53.722Z,1004.9
2017-05-07T03:38:53.703Z,1004.91
2017-05-07T03:39:53.685Z,1004.92
2017-05-07T03:40:53.674Z,1004.88
2017-05-07T03:41:53.646Z,1004.91
2017-05-07T03:42:53.626Z,1004.91
2017-05-07T03:43:53.615Z,1004.94
2017-05-07T03:44:53.593Z,1004.86
2017-05-07T03:45:53.567Z,1004.87
2017-05-07T03:46:53.553Z,1004.91
2017-05-07T03:47:53.538Z,1004.91
2017-05-07T03:48:53.511Z,1004.88
2017-05-07T03:49:53.492Z,1004.9
2017-05-07T03:50:53.472Z,1004.95
2017-05-07T03:51:53.463Z,1004.92
2017-05-07T03:52:53.434Z,1004.94
2017-05-07T03:53:53.413Z,1004.95
2017-05-07T03:54:53.399Z,1004.94
2017-05-07T03:55:53.375Z,1004.96
2017-05-07T03:56:53.363Z,1004.95
2017-05-07T03:57:53.340Z,1004.92
2017-05-07T03:58:53.321Z,1004.92
2017-05-07T03:59:53.347Z,1004.92
2017-05-07T04:00:53.282Z,1004.89
2017-05-07T04:01:53.265Z,1004.93
2017-05-07T04:02:53.246Z,1004.93
2017-05-07T04:03:53.225Z,1004.95
2017-05-07T04:04:53.208Z,1004.88
2017-05-07T04:05:53.191Z,1004.93
2017-05-07T04:06:53.161Z,1004.93
2017-05-07T04:07:53.152Z,1004.92
2017-05-07T04:08:53.129Z,1004.92
2017-05-07T04:09:53.121Z,1004.9
2017-05-07T04:10:53.097Z,1004.91
2017-05-07T04:11:53.075Z,1004.91
2017-05-07T04:12:53.054Z,1004.88
2017-05-07T04:13:53.040Z,1004.94
2017-05-07T04:14:53.014Z,1004.95
2017-05-07T04:15:52.991Z,1004.96
2017-05-07T04:16:52.977Z,1004.94
2017-05-07T04:17:52.954Z,1004.96
2017-05-07T04:18:52.931Z,1004.94
2017-05-07T04:19:52.913Z,1005
2017-05-07T04:20:52.892Z,1005.05
2017-05-07T04:21:52.873Z,1005.03
2017-05-07T04:22:52.854Z,1005.05
2017-05-07T04:23:52.835Z,1005.09
2017-05-07T04:24:52.821Z,1005.09
2017-05-07T04:25:52.797Z,1005.08
2017-05-07T04:26:52.780Z,1005.05
2017-05-07T04:27:52.759Z,1005.09
2017-05-07T04:28:52.741Z,1005.08
2017-05-07T04:29:52.723Z,1005.1
2017-05-07T04:30:52.704Z,1005.1
2017-05-07T04:31:52.680Z,1005.07
2017-05-07T04:32:52.663Z,1005.09
2017-05-07T04:33:52.643Z,1005.1
2017-05-07T04:34:52.622Z,1005.05
2017-05-07T04:35:52.612Z,1005.07
2017-05-07T04:36:52.584Z,1005.04
2017-05-07T04:37:52.566Z,1005.04
2017-05-07T04:38:52.548Z,1005.05
2017-05-07T04:39:52.533Z,1005.1
2017-05-07T04:40:52.511Z,1005.09
2017-05-07T04:41:52.491Z,1005.07
2017-05-07T04:42:52.473Z,1005.1
2017-05-07T04:43:52.454Z,1005.08
2017-05-07T04:44:52.433Z,1005.11
2017-05-07T04:45:52.423Z,1005.11
2017-05-07T04:46:52.393Z,1005.08
2017-05-07T04:47:52.383Z,1005.14
2017-05-07T04:48:52.359Z,1005.18
2017-05-07T04:49:52.342Z,1005.14
2017-05-07T04:50:52.321Z,1005.2
2017-05-07T04:51:52.301Z,1005.2
2017-05-07T04:52:52.283Z,1005.18
2017-05-07T04:53:52.262Z,1005.19
2017-05-07T04:54:52.242Z,1005.19
2017-05-07T04:55:52.223Z,1005.22
2017-05-07T04:56:52.205Z,1005.23
2017-05-07T04:57:52.192Z,1005.21
2017-05-07T04:58:52.165Z,1005.25
2017-05-07T04:59:52.147Z,1005.26
2017-05-07T05:00:52.135Z,1005.26
2017-05-07T05:01:52.109Z,1005.29
2017-05-07T05:02:52.091Z,1005.32
2017-05-07T05:03:52.071Z,1005.29
2017-05-07T05:04:52.051Z,1005.3
2017-05-07T05:05:52.032Z,1005.28
2017-05-07T05:06:52.016Z,1005.32
2017-05-07T05:07:51.996Z,1005.34
2017-05-07T05:08:51.983Z,1005.36
2017-05-07T05:09:51.962Z,1005.38
2017-05-07T05:10:51.942Z,1005.4
2017-05-07T05:11:51.923Z,1005.4
2017-05-07T05:12:51.903Z,1005.41
2017-05-07T05:13:51.882Z,1005.44
2017-05-07T05:14:51.872Z,1005.42
2017-05-07T05:15:51.854Z,1005.47
2017-05-07T05:16:51.828Z,1005.46
2017-05-07T05:17:51.811Z,1005.49
2017-05-07T05:18:51.793Z,1005.5
2017-05-07T05:19:51.771Z,1005.51
2017-05-07T05:20:51.754Z,1005.55
2017-05-07T05:21:51.737Z,1005.57
2017-05-07T05:22:51.722Z,1005.55
2017-05-07T05:23:51.712Z,1005.55
2017-05-07T05:24:51.677Z,1005.54
2017-05-07T05:25:51.662Z,1005.61
2017-05-07T05:26:51.651Z,1005.61
2017-05-07T05:27:51.620Z,1005.63
2017-05-07T05:28:51.615Z,1005.6
2017-05-07T05:29:51.592Z,1005.61
2017-05-07T05:30:51.572Z,1005.66
2017-05-07T05:31:51.550Z,1005.62
2017-05-07T05:32:51.529Z,1005.63
2017-05-07T05:33:51.514Z,1005.66
2017-05-07T05:34:51.495Z,1005.65
2017-05-07T05:35:51.472Z,1005.68
2017-05-07T05:36:51.461Z,1005.68
2017-05-07T05:37:51.439Z,1005.68
2017-05-07T05:38:51.417Z,1005.71
2017-05-07T05:39:51.404Z,1005.73
2017-05-07T05:40:51.381Z,1005.72
2017-05-07T05:41:51.360Z,1005.74
2017-05-07T05:42:51.364Z,1005.78
2017-05-07T05:43:51.323Z,1005.83
2017-05-07T05:44:51.312Z,1005.83
2017-05-07T05:45:51.291Z,1005.83
2017-05-07T05:46:51.273Z,1005.83
2017-05-07T05:47:51.257Z,1005.85
2017-05-07T05:48:51.232Z,1005.85
2017-05-07T05:49:51.211Z,1005.79
2017-05-07T05:50:51.197Z,1005.81
2017-05-07T05:51:51.184Z,1005.83
2017-05-07T05:52:51.161Z,1005.84
2017-05-07T05:53:51.142Z,1005.84
2017-05-07T05:54:51.123Z,1005.88
2017-05-07T05:55:51.103Z,1005.88
2017-05-07T05:56:51.082Z,1005.85
2017-05-07T05:57:51.063Z,1005.87
2017-05-07T05:58:51.056Z,1005.87
2017-05-07T05:59:51.033Z,1005.88
2017-05-07T06:00:51.047Z,1005.89
2017-05-07T06:01:50.995Z,1005.92
2017-05-07T06:02:51.005Z,1005.9
2017-05-07T06:03:50.952Z,1005.91
2017-05-07T06:04:50.943Z,1005.9
2017-05-07T06:05:50.915Z,1005.92
2017-05-07T06:06:50.903Z,1005.92
2017-05-07T06:07:50.880Z,1005.88
2017-05-07T06:08:50.863Z,1005.93
2017-05-07T06:09:50.843Z,1005.91
2017-05-07T06:10:50.822Z,1005.92
2017-05-07T06:11:50.854Z,1005.91
2017-05-07T06:12:50.788Z,1005.94
2017-05-07T06:13:50.815Z,1005.93
2017-05-07T06:14:50.753Z,1005.95
2017-05-07T06:15:50.732Z,1005.99
2017-05-07T06:16:50.718Z,1005.99
2017-05-07T06:17:50.696Z,1006.02
2017-05-07T06:18:50.683Z,1006.01
2017-05-07T06:19:50.662Z,1006.01
2017-05-07T06:20:50.652Z,1006.03
2017-05-07T06:21:50.621Z,1006.03
2017-05-07T06:22:50.614Z,1006.07
2017-05-07T06:23:50.588Z,1006.04
2017-05-07T06:24:50.573Z,1006.07
2017-05-07T06:25:50.552Z,1006.09
2017-05-07T06:26:50.538Z,1006.1
2017-05-07T06:27:50.518Z,1006.11
2017-05-07T06:28:50.500Z,1006.13
2017-05-07T06:29:50.505Z,1006.13
2017-05-07T06:30:50.460Z,1006.11
2017-05-07T06:31:50.441Z,1006.16
2017-05-07T06:32:50.425Z,1006.18
2017-05-07T06:33:50.403Z,1006.2
2017-05-07T06:34:50.388Z,1006.19
2017-05-07T06:35:50.373Z,1006.17
2017-05-07T06:36:50.352Z,1006.19
2017-05-07T06:37:50.335Z,1006.2
2017-05-07T06:38:50.315Z,1006.2
2017-05-07T06:39:50.295Z,1006.24
2017-05-07T06:40:50.277Z,1006.27
2017-05-07T06:41:50.262Z,1006.25
2017-05-07T06:42:50.241Z,1006.29
2017-05-07T06:43:50.222Z,1006.3
2017-05-07T06:44:50.205Z,1006.33
2017-05-07T06:45:50.308Z,1006.34
2017-05-07T06:46:50.172Z,1006.35
2017-05-07T06:47:50.157Z,1006.37
2017-05-07T06:48:50.132Z,1006.39
2017-05-07T06:49:50.124Z,1006.37
2017-05-07T06:50:50.103Z,1006.4
2017-05-07T06:51:50.088Z,1006.42
2017-05-07T06:52:50.063Z,1006.42
2017-05-07T06:53:50.072Z,1006.45
2017-05-07T06:54:50.023Z,1006.46
2017-05-07T06:55:50.016Z,1006.45
2017-05-07T06:56:49.993Z,1006.44
2017-05-07T06:57:50.018Z,1006.48
2017-05-07T06:58:49.952Z,1006.48
2017-05-07T06:59:49.939Z,1006.5
2017-05-07T07:00:49.916Z,1006.5
2017-05-07T07:01:49.903Z,1006.49
2017-05-07T07:02:49.879Z,1006.52
2017-05-07T07:03:49.867Z,1006.56
2017-05-07T07:04:49.850Z,1006.59
2017-05-07T07:05:49.833Z,1006.57
2017-05-07T07:06:49.812Z,1006.61
2017-05-07T07:07:49.795Z,1006.67
2017-05-07T07:08:49.779Z,1006.63
2017-05-07T07:09:49.774Z,1006.63
2017-05-07T07:10:49.742Z,1006.66
2017-05-07T07:11:49.722Z,1006.68
2017-05-07T07:12:49.703Z,1006.68
2017-05-07T07:13:49.687Z,1006.68
2017-05-07T07:14:49.672Z,1006.71
2017-05-07T07:15:49.654Z,1006.67
2017-05-07T07:16:49.633Z,1006.67
2017-05-07T07:17:49.617Z,1006.69
2017-05-07T07:18:49.600Z,1006.7
2017-05-07T07:19:49.584Z,1006.72
2017-05-07T07:20:49.561Z,1006.71
2017-05-07T07:21:49.657Z,1006.73
2017-05-07T07:22:49.530Z,1006.72
2017-05-07T07:23:49.511Z,1006.75
2017-05-07T07:24:49.494Z,1006.78
2017-05-07T07:25:49.473Z,1006.76
2017-05-07T07:26:49.457Z,1006.8
2017-05-07T07:27:49.441Z,1006.77
2017-05-07T07:28:49.422Z,1006.83
2017-05-07T07:29:49.403Z,1006.79
2017-05-07T07:30:49.385Z,1006.81
2017-05-07T07:31:49.375Z,1006.83
2017-05-07T07:32:49.353Z,1006.83
2017-05-07T07:33:49.343Z,1006.89
2017-05-07T07:34:49.324Z,1006.87
2017-05-07T07:35:49.300Z,1006.91
2017-05-07T07:36:49.283Z,1006.91
2017-05-07T07:37:49.269Z,1006.94
2017-05-07T07:38:49.254Z,1006.96
2017-05-07T07:39:49.230Z,1006.98
2017-05-07T07:40:49.215Z,1006.96
2017-05-07T07:41:49.202Z,1006.94
2017-05-07T07:42:49.183Z,1006.97
2017-05-07T07:43:49.164Z,1007
2017-05-07T07:44:49.151Z,1007.01
2017-05-07T07:45:49.130Z,1006.98
2017-05-07T07:46:49.110Z,1007.01
2017-05-07T07:47:49.094Z,1007.03
2017-05-07T07:48:49.076Z,1007.03
2017-05-07T07:49:49.059Z,1007.01
2017-05-07T07:50:49.043Z,1007.01
2017-05-07T07:51:49.023Z,1007
2017-05-07T07:52:49.012Z,1007.02
2017-05-07T07:53:48.992Z,1007.03
2017-05-07T07:54:48.975Z,1007.01
2017-05-07T07:55:48.961Z,1007.03
2017-05-07T07:56:48.939Z,1007.06
2017-05-07T07:57:48.922Z,1007.02
2017-05-07T07:58:48.903Z,1007.11
2017-05-07T07:59:48.884Z,1007.07
2017-05-07T08:00:48.868Z,1007.08
2017-05-07T08:01:48.858Z,1007.08
2017-05-07T08:02:48.835Z,1007.11
2017-05-07T08:03:48.817Z,1007.1
2017-05-07T08:04:48.801Z,1007.12
2017-05-07T08:05:48.790Z,1007.12
2017-05-07T08:06:48.763Z,1007.13
2017-05-07T08:07:48.753Z,1007.1
2017-05-07T08:08:48.734Z,1007.12
2017-05-07T08:09:48.719Z,1007.12
2017-05-07T08:10:48.700Z,1007.11
2017-05-07T08:11:48.676Z,1007.15
2017-05-07T08:12:48.662Z,1007.18
2017-05-07T08:13:48.647Z,1007.18
2017-05-07T08:14:48.633Z,1007.21
2017-05-07T08:15:48.609Z,1007.23
2017-05-07T08:16:48.601Z,1007.23
2017-05-07T08:17:48.581Z,1007.22
2017-05-07T08:18:48.564Z,1007.21
2017-05-07T08:19:48.543Z,1007.28
2017-05-07T08:20:48.525Z,1007.25
2017-05-07T08:21:48.513Z,1007.28
2017-05-07T08:22:48.492Z,1007.3
2017-05-07T08:23:48.480Z,1007.3
2017-05-07T08:24:48.461Z,1007.31
2017-05-07T08:25:48.442Z,1007.3
2017-05-07T08:26:48.433Z,1007.34
2017-05-07T08:27:48.413Z,1007.37
2017-05-07T08:28:48.395Z,1007.34
2017-05-07T08:29:48.384Z,1007.33
2017-05-07T08:30:48.373Z,1007.35
2017-05-07T08:31:48.358Z,1007.37
2017-05-07T08:32:48.342Z,1007.36
2017-05-07T08:33:48.314Z,1007.39
2017-05-07T08:34:48.300Z,1007.37
2017-05-07T08:35:48.285Z,1007.39
2017-05-07T08:36:48.275Z,1007.41
2017-05-07T08:37:48.253Z,1007.43
2017-05-07T08:38:48.234Z,1007.42
2017-05-07T08:39:48.218Z,1007.44
2017-05-07T08:40:48.205Z,1007.43
2017-05-07T08:41:48.183Z,1007.49
2017-05-07T08:42:48.169Z,1007.49
2017-05-07T08:43:48.154Z,1007.53
2017-05-07T08:44:48.135Z,1007.56
2017-05-07T08:45:48.124Z,1007.53
2017-05-07T08:46:48.107Z,1007.54
2017-05-07T08:47:48.093Z,1007.53
2017-05-07T08:48:48.076Z,1007.51
2017-05-07T08:49:48.054Z,1007.55
2017-05-07T08:50:48.045Z,1007.54
2017-05-07T08:51:48.023Z,1007.54
2017-05-07T08:52:48.012Z,1007.57
2017-05-07T08:53:47.993Z,1007.55
2017-05-07T08:54:47.975Z,1007.58
2017-05-07T08:55:47.961Z,1007.55
2017-05-07T08:56:47.942Z,1007.6
2017-05-07T08:57:47.924Z,1007.6
2017-05-07T08:58:47.912Z,1007.64
2017-05-07T08:59:47.894Z,1007.61
2017-05-07T09:00:47.880Z,1007.64
2017-05-07T09:01:47.862Z,1007.67
2017-05-07T09:02:47.845Z,1007.68
2017-05-07T09:03:47.834Z,1007.68
2017-05-07T09:04:47.812Z,1007.69
2017-05-07T09:05:47.803Z,1007.67
2017-05-07T09:06:47.780Z,1007.67
2017-05-07T09:07:47.772Z,1007.71
2017-05-07T09:08:47.751Z,1007.7
2017-05-07T09:09:47.731Z,1007.71
2017-05-07T09:10:47.718Z,1007.7
2017-05-07T09:11:47.701Z,1007.75
2017-05-07T09:12:47.682Z,1007.76
2017-05-07T09:13:47.668Z,1007.74
2017-05-07T09:14:47.655Z,1007.75
2017-05-07T09:15:47.639Z,1007.81
2017-05-07T09:16:47.626Z,1007.8
2017-05-07T09:17:47.613Z,1007.84
2017-05-07T09:18:47.593Z,1007.8
2017-05-07T09:19:47.573Z,1007.82
2017-05-07T09:20:47.558Z,1007.85
2017-05-07T09:21:47.544Z,1007.86
2017-05-07T09:22:47.521Z,1007.83
2017-05-07T09:23:47.511Z,1007.84
2017-05-07T09:24:47.491Z,1007.86
2017-05-07T09:25:47.473Z,1007.84
2017-05-07T09:26:47.464Z,1007.87
2017-05-07T09:27:47.446Z,1007.89
2017-05-07T09:28:47.425Z,1007.87
2017-05-07T09:29:47.409Z,1007.9
2017-05-07T09:30:47.403Z,1007.87
2017-05-07T09:31:47.378Z,1007.93
2017-05-07T09:32:47.374Z,1007.88
2017-05-07T09:33:47.346Z,1007.93
2017-05-07T09:34:47.331Z,1007.9
2017-05-07T09:35:47.319Z,1007.9
2017-05-07T09:36:47.301Z,1007.93
2017-05-07T09:37:47.282Z,1007.94
2017-05-07T09:38:47.275Z,1007.95
2017-05-07T09:39:47.255Z,1007.95
2017-05-07T09:40:47.241Z,1007.97
2017-05-07T09:41:47.225Z,1007.99
2017-05-07T09:42:47.210Z,1008.01
2017-05-07T09:43:47.193Z,1008.01
2017-05-07T09:44:47.183Z,1008
2017-05-07T09:45:47.171Z,1008.06
2017-05-07T09:46:47.154Z,1008.03
2017-05-07T09:47:47.140Z,1008.03
2017-05-07T09:48:47.122Z,1008.02
2017-05-07T09:49:47.112Z,1008.05
2017-05-07T09:50:47.097Z,1008.02
2017-05-07T09:51:47.079Z,1007.99
2017-05-07T09:52:47.064Z,1008.06
2017-05-07T09:53:47.062Z,1008.07
2017-05-07T09:54:47.044Z,1008.08
2017-05-07T09:55:47.033Z,1008.09
2017-05-07T09:56:47.022Z,1008.08
2017-05-07T09:57:47.002Z,1008.06
2017-05-07T09:58:46.994Z,1008.08
2017-05-07T09:59:46.975Z,1008.13
2017-05-07T10:00:46.964Z,1008.07
2017-05-07T10:01:46.950Z,1008.06
2017-05-07T10:02:46.942Z,1008.05
2017-05-07T10:03:46.932Z,1007.99
2017-05-07T10:04:46.913Z,1008.02
2017-05-07T10:05:46.901Z,1008
2017-05-07T10:06:46.889Z,1008.01
2017-05-07T10:07:46.877Z,1008.02
2017-05-07T10:08:46.872Z,1008.03
2017-05-07T10:09:46.861Z,1008.04
2017-05-07T10:10:46.845Z,1008.01
2017-05-07T10:11:46.829Z,1008.03
2017-05-07T10:12:46.811Z,1008.02
2017-05-07T10:13:46.801Z,1008.06
2017-05-07T10:14:46.795Z,1008.04
2017-05-07T10:15:46.780Z,1008.04
2017-05-07T10:16:46.777Z,1008.02
2017-05-07T10:17:46.753Z,1008.03
2017-05-07T10:18:46.744Z,1008.03
2017-05-07T10:19:46.725Z,1008.02
2017-05-07T10:20:46.722Z,1008.06
2017-05-07T10:21:46.752Z,1008.03
2017-05-07T10:22:46.704Z,1008.08
2017-05-07T10:23:46.678Z,1008.08
2017-05-07T10:24:46.672Z,1008.14
2017-05-07T10:25:46.651Z,1008.12
2017-05-07T10:26:46.641Z,1008.13
2017-05-07T10:27:46.627Z,1008.16
2017-05-07T10:28:46.622Z,1008.12
2017-05-07T10:29:46.615Z,1008.13
2017-05-07T10:30:46.588Z,1008.12
2017-05-07T10:31:46.592Z,1008.14
2017-05-07T10:32:46.565Z,1008.13
2017-05-07T10:33:46.551Z,1008.16
2017-05-07T10:34:46.544Z,1008.13
2017-05-07T10:35:46.534Z,1008.15
2017-05-07T10:36:46.521Z,1008.15
2017-05-07T10:37:46.500Z,1008.17
2017-05-07T10:38:46.494Z,1008.15
2017-05-07T10:39:46.481Z,1008.14
2017-05-07T10:40:46.462Z,1008.13
2017-05-07T10:41:46.454Z,1008.13
2017-05-07T10:42:46.440Z,1008.11
2017-05-07T10:43:46.427Z,1008.08
2017-05-07T10:44:46.422Z,1008.11
2017-05-07T10:45:46.401Z,1008.08
2017-05-07T10:46:46.393Z,1008.1
2017-05-07T10:47:46.379Z,1008.09
2017-05-07T10:48:46.372Z,1008.08
2017-05-07T10:49:46.351Z,1008.15
2017-05-07T10:50:46.341Z,1008.13
2017-05-07T10:51:46.333Z,1008.07
2017-05-07T10:52:46.325Z,1008.06
2017-05-07T10:53:46.303Z,1008.08
2017-05-07T10:54:46.311Z,1008.05
2017-05-07T10:55:46.282Z,1008.07
2017-05-07T10:56:46.276Z,1008.09
2017-05-07T10:57:46.262Z,1008.12
2017-05-07T10:58:46.245Z,1008.11
2017-05-07T10:59:46.232Z,1008.08
2017-05-07T11:00:46.222Z,1008.06
2017-05-07T11:01:46.210Z,1008.06
2017-05-07T11:02:46.202Z,1008.07
2017-05-07T11:03:46.200Z,1008.08
2017-05-07T11:04:46.174Z,1008.08
2017-05-07T11:05:46.171Z,1008.11
2017-05-07T11:06:46.154Z,1008.09
2017-05-07T11:07:46.162Z,1008.08
2017-05-07T11:08:46.131Z,1008.1
2017-05-07T11:09:46.173Z,1008.1
2017-05-07T11:10:46.117Z,1008.07
2017-05-07T11:11:46.104Z,1008.06
2017-05-07T11:12:46.087Z,1008.15
2017-05-07T11:13:46.082Z,1008.1
2017-05-07T11:14:46.066Z,1008.13
2017-05-07T11:15:46.064Z,1008.13
2017-05-07T11:16:46.047Z,1008.1
2017-05-07T11:17:46.142Z,1008.09
2017-05-07T11:18:46.024Z,1008.06
2017-05-07T11:19:46.016Z,1008.06
2017-05-07T11:20:46.013Z,1008.09
2017-05-07T11:21:45.999Z,1008.13
2017-05-07T11:22:45.990Z,1008.08
2017-05-07T11:23:46.025Z,1008.05
2017-05-07T11:24:45.969Z,1008.09
2017-05-07T11:25:45.951Z,1008.01
2017-05-07T11:26:45.941Z,1008.07
2017-05-07T11:27:45.929Z,1008.05
2017-05-07T11:28:45.925Z,1008.01
2017-05-07T11:29:45.906Z,1008.04
2017-05-07T11:30:45.904Z,1008.05
2017-05-07T11:31:45.885Z,1008.04
2017-05-07T11:32:45.944Z,1008.04
2017-05-07T11:33:45.872Z,1007.99
2017-05-07T11:34:45.853Z,1008.02
2017-05-07T11:35:45.847Z,1008.03
2017-05-07T11:36:45.833Z,1008
2017-05-07T11:37:45.825Z,1008.04
2017-05-07T11:38:45.805Z,1007.97
2017-05-07T11:39:45.797Z,1008.03
2017-05-07T11:40:45.784Z,1007.98
2017-05-07T11:41:45.778Z,1007.95
2017-05-07T11:42:45.765Z,1007.96
2017-05-07T11:43:45.756Z,1007.98
2017-05-07T11:44:45.746Z,1007.93
2017-05-07T11:45:45.728Z,1007.95
2017-05-07T11:46:45.727Z,1007.95
2017-05-07T11:47:45.730Z,1007.92
2017-05-07T11:48:45.694Z,1007.96
2017-05-07T11:49:45.692Z,1007.97
2017-05-07T11:50:45.672Z,1007.96
2017-05-07T11:51:45.705Z,1007.96
2017-05-07T11:52:45.657Z,1007.96
2017-05-07T11:53:45.637Z,1007.95
2017-05-07T11:54:45.625Z,1008
2017-05-07T11:55:45.616Z,1007.99
2017-05-07T11:56:45.599Z,1007.96
2017-05-07T11:57:45.593Z,1007.95
2017-05-07T11:58:45.584Z,1007.95
2017-05-07T11:59:45.567Z,1007.96
2017-05-07T12:00:45.552Z,1007.96
2017-05-07T12:01:45.542Z,1007.92
2017-05-07T12:02:45.530Z,1007.96
2017-05-07T12:03:45.529Z,1007.96
2017-05-07T12:04:45.513Z,1007.95
2017-05-07T12:05:45.498Z,1007.89
2017-05-07T12:06:45.490Z,1007.95
2017-05-07T12:07:45.474Z,1007.91
2017-05-07T12:08:45.465Z,1007.94